Ana Sayfa
METAR-TAF:

METAR-TAF

Havaalanları :

Antakya, Türkiye

Hatay Havalimanı

Enlem: 36-21-46N, Boylam: 36-16-56E, yükseklik: 1950 m

Güncel hava durumu gözlemi

Rapor saat 13:50 UTC de 53 dakika önce yapıldı.
Rüzgar batı/kuzeybatıdan 4 kt
Sıcaklık 18°C
Nem 59%
Basınç 1009 hPa
Görüş mesafesi 10 km veya daha fazla
3500 ft yükseklikte parçalı bulutlu

METAR: LTDA 231350Z 29004KT 9999 SCT035 18/10 Q1009 NOSIG

Saat: 17:43 (14:43 UTC)

Tahmin

Rapor saat 13:40 UTC de 1 saat ve 3 dakika önce yapıldı.
Ayın 23'si saat 15 UTC'den ayın 23'si saat 24 UTC'ye kadar geçerli Tahmin
Rüzgar değişken yönden 2 kt
Görüş mesafesi 10 km veya daha fazla
3500 ft yükseklikte parçalı bulutlu
Dönüşüyor
ayın 23'si saat 22 UTC'den ayın 23'si saat 24 UTC'ye kadar
Görüş mesafesi: 4000 m
Pus

TAF: LTDA 231340Z 2315/2324 VRB02KT 9999 SCT035 BECMG 2322/2324 4000 BR

4.000'den fazla havaalanı için hava durumu gözlemleri ve tahminleri (METAR ve TAF raporları).

Kullanılabilir istasyonlar harita üzerinde sarı ve kırmızı noktalarla gösterilir.

İstasyonun adını görmek için fareyi noktanın üzerinde gezdirin.

Sonrasında hava gözlem ve tahminlerini görmek için tıklayın.

Haritayı değiştirmek için: yaklaştırmak için siyah artı işaretli yeşil düğmeye ve uzaklaştırmak için de eksi işaretli düğmeye hızla tıklayın; bitişik haritalar için yeşil okları kullanın.


METAR-TAF: